Time;durP1;ratioP1;P1;durP2;ratioP2;P2;SDS_P1;SDS_P2;PMS_P1;PMS_P2;Temp;Humidity;BMP_temperature;BMP_pressure;BME280_temperature;BME280_humidity;BME280_pressure;Samples;Min_cycle;Max_cycle;Signal;HPM_P1;HPM_P2
2023/02/17 00:00:38;;;;;;;;;;;;;;;11.35;53.20;102104.75;5010276;28;19918;-72
2023/02/17 00:03:27;;;;;;;;;;;;;;;11.39;52.91;102108.50;5007659;28;19921;-71
2023/02/17 00:06:19;;;;;;;;;;;;;;;11.37;52.89;102116.19;5011161;28;19913;-71
2023/02/17 00:09:11;;;;;;;;;;;;;;;11.38;53.11;102115.06;5013807;28;19914;-71
2023/02/17 00:12:01;;;;;;;;;;;;;;;11.33;53.25;102112.38;4999538;28;19914;-71
2023/02/17 00:14:53;;;;;;;;;;;;;;;11.31;52.82;102114.59;5012800;28;19913;-71
2023/02/17 00:17:45;;;;;;;;;;;;;;;11.33;52.59;102117.81;5002277;28;20309;-72
2023/02/17 00:20:37;;;;;;;;;;;;;;;11.43;52.07;102117.72;5022770;28;19917;-71
2023/02/17 00:23:28;;;;;;;;;;;;;;;11.46;51.92;102109.00;5018883;28;19913;-72
2023/02/17 00:26:21;;;;;;;;;;;;;;;11.48;51.75;102115.78;5012799;28;19913;-71
2023/02/17 00:29:13;;;;;;;;;;;;;;;11.44;52.51;102114.72;5012250;28;19913;-72
2023/02/17 00:32:05;;;;;;;;;;;;;;;11.34;52.79;102114.00;5000046;28;20294;-72
2023/02/17 00:34:56;;;;;;;;;;;;;;;11.30;53.33;102115.69;5007256;28;19918;-71
2023/02/17 00:37:48;;;;;;;;;;;;;;;11.32;53.64;102110.78;5012791;28;19914;-72
2023/02/17 00:40:40;;;;;;;;;;;;;;;11.30;53.29;102107.50;5011920;28;19917;-71
2023/02/17 00:43:29;;;;;;;;;;;;;;;11.11;53.90;102108.22;4997507;28;19913;-72
2023/02/17 00:46:21;;;;;;;;;;;;;;;11.07;54.10;102107.13;5010391;28;19913;-72
2023/02/17 00:49:23;;;;;;;;;;;;;;;10.91;54.56;102105.66;4998365;28;19914;-72
2023/02/17 00:52:12;;;;;;;;;;;;;;;11.01;53.56;102099.31;4998973;28;19913;-71
2023/02/17 00:55:04;;;;;;;;;;;;;;;10.85;53.44;102106.78;5020148;28;20325;-71
2023/02/17 00:57:56;;;;;;;;;;;;;;;10.87;53.47;102109.22;5012530;28;19917;-71
2023/02/17 01:00:48;;;;;;;;;;;;;;;10.88;53.49;102116.28;5000701;28;19918;-71
2023/02/17 01:03:40;;;;;;;;;;;;;;;10.87;53.67;102106.50;4999107;28;19913;-71
2023/02/17 01:06:33;;;;;;;;;;;;;;;10.82;52.93;102104.59;5012478;28;19913;-71
2023/02/17 01:09:25;;;;;;;;;;;;;;;10.79;53.30;102098.94;4998347;28;19913;-71
2023/02/17 01:12:17;;;;;;;;;;;;;;;10.73;53.09;102098.16;4994892;28;19913;-71
2023/02/17 01:15:09;;;;;;;;;;;;;;;10.71;53.05;102100.34;5004361;28;19914;-71
2023/02/17 01:18:01;;;;;;;;;;;;;;;10.64;52.98;102100.66;5019041;28;19913;-69
2023/02/17 01:20:53;;;;;;;;;;;;;;;10.64;52.99;102095.22;5018203;28;20296;-69
2023/02/17 01:23:45;;;;;;;;;;;;;;;10.63;53.24;102093.59;5018697;28;19917;-69
2023/02/17 01:26:38;;;;;;;;;;;;;;;10.56;52.96;102095.00;5005588;28;19921;-69
2023/02/17 01:29:30;;;;;;;;;;;;;;;10.40;53.68;102088.03;5018319;28;20305;-69
2023/02/17 01:32:22;;;;;;;;;;;;;;;10.37;54.03;102085.84;5005571;28;19913;-69
2023/02/17 01:35:11;;;;;;;;;;;;;;;10.34;54.07;102091.84;5004378;28;19913;-69
2023/02/17 01:38:03;;;;;;;;;;;;;;;10.25;54.26;102087.00;5018621;28;19913;-70
2023/02/17 01:40:55;;;;;;;;;;;;;;;10.20;54.30;102094.38;5004200;28;19917;-69
2023/02/17 01:44:05;;;;;;;;;;;;;;;10.21;53.95;102091.34;5010898;28;19914;-69
2023/02/17 01:46:59;;;;;;;;;;;;;;;10.16;53.95;102088.66;4987409;28;19921;-69
2023/02/17 01:49:51;;;;;;;;;;;;;;;10.16;53.66;102093.28;5014040;28;19943;-69
2023/02/17 01:52:44;;;;;;;;;;;;;;;10.12;53.32;102095.72;5008632;28;19917;-69
2023/02/17 01:55:36;;;;;;;;;;;;;;;10.08;53.28;102085.69;5015902;28;19914;-69
2023/02/17 01:58:30;;;;;;;;;;;;;;;10.02;53.50;102075.91;5004647;28;19913;-68
2023/02/17 02:01:22;;;;;;;;;;;;;;;10.00;53.57;102080.84;4990112;28;19917;-70
2023/02/17 02:04:14;;;;;;;;;;;;;;;10.01;53.88;102071.56;5004600;28;19917;-69
2023/02/17 02:07:05;;;;;;;;;;;;;;;10.03;53.67;102070.22;5012669;28;19914;-69
2023/02/17 02:09:58;;;;;;;;;;;;;;;10.01;53.75;102071.56;5015043;28;19914;-69
2023/02/17 02:12:52;;;;;;;;;;;;;;;9.82;54.46;102065.94;5015712;28;19913;-69
2023/02/17 02:15:58;;;;;;;;;;;;;;;9.98;53.39;102072.94;5001758;28;19917;-69
2023/02/17 02:19:02;;;;;;;;;;;;;;;9.99;52.17;102066.44;5011690;28;19913;-69
2023/02/17 02:22:04;;;;;;;;;;;;;;;10.07;51.99;102063.13;5006951;28;20391;-69
2023/02/17 02:25:09;;;;;;;;;;;;;;;10.00;51.97;102065.34;5005017;28;20333;-69
2023/02/17 02:28:02;;;;;;;;;;;;;;;10.08;51.80;102066.66;5013506;28;20317;-69
2023/02/17 02:31:04;;;;;;;;;;;;;;;10.00;51.49;102061.81;5004272;28;19916;-69
2023/02/17 02:34:06;;;;;;;;;;;;;;;10.00;51.60;102064.53;5019552;28;20310;-69
2023/02/17 02:37:07;;;;;;;;;;;;;;;9.98;52.39;102059.38;5008165;28;19912;-69
2023/02/17 02:40:02;;;;;;;;;;;;;;;10.03;52.56;102056.63;5009570;28;19921;-69
2023/02/17 02:42:55;;;;;;;;;;;;;;;10.07;52.08;102065.03;5021336;28;19913;-69
2023/02/17 02:45:47;;;;;;;;;;;;;;;9.97;52.27;102068.59;5020938;28;19917;-69
2023/02/17 02:48:39;;;;;;;;;;;;;;;9.93;52.26;102075.69;5004332;28;19913;-69
2023/02/17 02:51:32;;;;;;;;;;;;;;;9.89;52.06;102066.47;4996451;28;20382;-69
2023/02/17 02:54:52;;;;;;;;;;;;;;;9.77;51.42;102063.25;5002795;28;19913;-68
2023/02/17 02:57:54;;;;;;;;;;;;;;;9.64;51.09;102061.13;5005261;28;19933;-69
2023/02/17 03:00:56;;;;;;;;;;;;;;;9.61;50.80;102054.31;5006000;28;20302;-69
2023/02/17 03:03:51;;;;;;;;;;;;;;;9.64;49.91;102061.13;5009714;28;19914;-69
2023/02/17 03:06:50;;;;;;;;;;;;;;;9.57;50.06;102057.88;4997228;28;19913;-69
2023/02/17 03:09:43;;;;;;;;;;;;;;;9.56;49.96;102048.09;5001260;28;19913;-69
2023/02/17 03:12:37;;;;;;;;;;;;;;;9.59;49.37;102053.00;5000440;28;19913;-69
2023/02/17 03:15:33;;;;;;;;;;;;;;;9.49;49.38;102039.44;5000362;28;20385;-69
2023/02/17 03:18:25;;;;;;;;;;;;;;;9.51;50.12;102043.47;4984052;28;19913;-69
2023/02/17 03:21:17;;;;;;;;;;;;;;;9.51;49.87;102045.38;4998328;28;19921;-69
2023/02/17 03:24:10;;;;;;;;;;;;;;;9.53;50.01;102051.38;4998467;28;19914;-69
2023/02/17 03:26:59;;;;;;;;;;;;;;;9.37;48.80;102056.81;5011399;28;19921;-70
2023/02/17 03:29:51;;;;;;;;;;;;;;;9.37;49.08;102075.81;5013118;28;19914;-69
2023/02/17 03:32:43;;;;;;;;;;;;;;;9.29;49.18;102062.00;5001069;28;19914;-69
2023/02/17 03:35:35;;;;;;;;;;;;;;;9.29;49.28;102072.88;5025749;28;20382;-69
2023/02/17 03:38:27;;;;;;;;;;;;;;;9.27;48.91;102077.75;5015247;28;20373;-69
2023/02/17 03:41:19;;;;;;;;;;;;;;;9.24;48.80;102076.41;5018913;28;19917;-69
2023/02/17 03:44:11;;;;;;;;;;;;;;;9.20;48.93;102075.28;5025257;28;19913;-69
2023/02/17 03:47:03;;;;;;;;;;;;;;;9.11;49.38;102070.69;5033583;28;20290;-69
2023/02/17 03:49:55;;;;;;;;;;;;;;;9.11;50.16;102071.50;5018770;28;20294;-68
2023/02/17 03:52:47;;;;;;;;;;;;;;;9.05;49.44;102067.16;4998782;28;19917;-68
2023/02/17 03:55:38;;;;;;;;;;;;;;;9.00;49.42;102070.69;5002531;28;19914;-69
2023/02/17 03:58:30;;;;;;;;;;;;;;;8.93;49.19;102080.19;5024091;28;19913;-69
2023/02/17 04:01:22;;;;;;;;;;;;;;;8.87;49.18;102073.94;5027627;28;19922;-69
2023/02/17 04:04:14;;;;;;;;;;;;;;;8.91;49.01;102076.94;5001825;28;19913;-69
2023/02/17 04:07:06;;;;;;;;;;;;;;;8.88;48.89;102089.16;5013208;28;19921;-69
2023/02/17 04:09:55;;;;;;;;;;;;;;;8.78;48.30;102077.47;5012990;28;19913;-69
2023/02/17 04:12:47;;;;;;;;;;;;;;;8.83;48.34;102091.84;4993344;28;19913;-68
2023/02/17 04:15:39;;;;;;;;;;;;;;;8.71;48.30;102088.56;4979243;28;19914;-68
2023/02/17 04:18:31;;;;;;;;;;;;;;;8.72;48.98;102083.97;5005272;28;19913;-69
2023/02/17 04:21:23;;;;;;;;;;;;;;;8.70;48.82;102086.13;5022091;28;19917;-69
2023/02/17 04:24:15;;;;;;;;;;;;;;;8.58;48.71;102080.97;5017956;28;19913;-69
2023/02/17 04:27:07;;;;;;;;;;;;;;;8.56;48.36;102092.06;5032710;28;19917;-69
2023/02/17 04:29:57;;;;;;;;;;;;;;;8.49;47.96;102085.25;5012375;28;19921;-70
2023/02/17 04:32:49;;;;;;;;;;;;;;;8.47;48.00;102088.25;5019220;28;19912;-69
2023/02/17 04:35:41;;;;;;;;;;;;;;;8.47;48.00;102085.56;5020509;28;19913;-69
2023/02/17 04:38:33;;;;;;;;;;;;;;;8.45;48.32;102079.56;5031481;28;20286;-69
2023/02/17 04:41:25;;;;;;;;;;;;;;;8.41;48.65;102089.31;5014939;28;19918;-69
2023/02/17 04:44:17;;;;;;;;;;;;;;;8.43;48.68;102089.84;5018734;28;19917;-69
2023/02/17 04:47:09;;;;;;;;;;;;;;;8.40;48.56;102086.88;5028787;28;19917;-69
2023/02/17 04:50:02;;;;;;;;;;;;;;;8.36;48.25;102086.59;5017875;28;19913;-69
2023/02/17 04:52:54;;;;;;;;;;;;;;;8.26;48.00;102075.69;5006427;28;19913;-69
2023/02/17 04:55:43;;;;;;;;;;;;;;;8.18;48.06;102071.59;5005760;28;19913;-69
2023/02/17 04:58:35;;;;;;;;;;;;;;;8.24;47.99;102075.13;5000785;28;20294;-69
2023/02/17 05:01:27;;;;;;;;;;;;;;;8.20;48.00;102076.75;5013148;28;19922;-69
2023/02/17 05:04:19;;;;;;;;;;;;;;;8.15;47.44;102080.25;5002980;28;19913;-69
2023/02/17 05:07:11;;;;;;;;;;;;;;;8.10;47.51;102087.56;5012491;28;19913;-69
2023/02/17 05:10:03;;;;;;;;;;;;;;;8.11;47.87;102081.88;5012893;28;19913;-69
2023/02/17 05:12:55;;;;;;;;;;;;;;;8.08;47.78;102078.84;5014634;28;20390;-68
2023/02/17 05:15:48;;;;;;;;;;;;;;;8.04;47.53;102080.47;5012347;28;20362;-69
2023/02/17 05:18:40;;;;;;;;;;;;;;;7.98;47.85;102092.38;4996963;28;19913;-69
2023/02/17 05:21:31;;;;;;;;;;;;;;;7.84;48.23;102085.81;5012129;28;19917;-69
2023/02/17 05:24:23;;;;;;;;;;;;;;;7.76;48.64;102084.41;5003481;28;19917;-68
2023/02/17 05:27:15;;;;;;;;;;;;;;;7.66;49.50;102087.88;5007759;28;19913;-68
2023/02/17 05:30:07;;;;;;;;;;;;;;;7.63;50.12;102082.97;5001327;28;19917;-69
2023/02/17 05:32:59;;;;;;;;;;;;;;;7.61;50.31;102082.44;4984698;28;19917;-69
2023/02/17 05:35:51;;;;;;;;;;;;;;;7.60;50.31;102098.94;5004663;28;19913;-68
2023/02/17 05:38:43;;;;;;;;;;;;;;;7.58;49.91;102096.47;5002540;28;19913;-69
2023/02/17 05:41:35;;;;;;;;;;;;;;;7.57;49.67;102094.84;4994928;28;19921;-69
2023/02/17 05:44:27;;;;;;;;;;;;;;;7.53;49.74;102091.03;5008958;28;19917;-69
2023/02/17 05:47:19;;;;;;;;;;;;;;;7.56;49.88;102100.53;4995676;28;19913;-69
2023/02/17 05:50:11;;;;;;;;;;;;;;;7.51;49.97;102100.50;5009125;28;19913;-69
2023/02/17 05:53:03;;;;;;;;;;;;;;;7.50;50.08;102098.88;4991117;28;19952;-69
2023/02/17 05:55:55;;;;;;;;;;;;;;;7.46;50.72;102109.41;5009657;28;20378;-69
2023/02/17 05:58:45;;;;;;;;;;;;;;;7.41;50.32;102106.66;5011919;28;19921;-69
2023/02/17 06:01:37;;;;;;;;;;;;;;;7.35;50.31;102112.28;5011544;28;19917;-68
2023/02/17 06:04:29;;;;;;;;;;;;;;;7.31;50.59;102114.72;5025248;28;19913;-69
2023/02/17 06:07:21;;;;;;;;;;;;;;;7.32;50.46;102129.84;5026170;28;19914;-69
2023/02/17 06:10:14;;;;;;;;;;;;;;;7.25;51.20;102134.69;5003542;28;19914;-69
2023/02/17 06:13:03;;;;;;;;;;;;;;;7.30;51.26;102138.25;5019937;28;19913;-69
2023/02/17 06:15:55;;;;;;;;;;;;;;;7.41;51.05;102132.91;5015465;28;19913;-69
2023/02/17 06:18:47;;;;;;;;;;;;;;;7.32;51.37;102140.66;5013150;28;19917;-69
2023/02/17 06:21:39;;;;;;;;;;;;;;;7.30;51.75;102132.00;5002735;28;19917;-69
2023/02/17 06:24:31;;;;;;;;;;;;;;;7.29;51.39;102152.84;5020341;28;19912;-69
2023/02/17 06:27:24;;;;;;;;;;;;;;;7.23;51.53;102153.03;5017324;28;19914;-69
2023/02/17 06:30:13;;;;;;;;;;;;;;;7.25;51.60;102157.13;5018352;28;19914;-69
2023/02/17 06:33:05;;;;;;;;;;;;;;;7.27;51.72;102160.38;5021882;28;19913;-69
2023/02/17 06:35:57;;;;;;;;;;;;;;;7.28;51.40;102163.91;5017827;28;19921;-69
2023/02/17 06:38:49;;;;;;;;;;;;;;;7.19;51.26;102158.16;5013565;28;19914;-69
2023/02/17 06:41:41;;;;;;;;;;;;;;;7.14;51.38;102162.72;5011673;28;19932;-69
2023/02/17 06:44:30;;;;;;;;;;;;;;;7.08;51.50;102158.31;5007854;28;19921;-69
2023/02/17 06:47:23;;;;;;;;;;;;;;;7.15;51.32;102157.06;5008423;28;20467;-69
2023/02/17 06:50:15;;;;;;;;;;;;;;;7.15;51.42;102162.47;5008778;28;19913;-69
2023/02/17 06:53:04;;;;;;;;;;;;;;;7.07;51.89;102164.78;4980511;28;19917;-69
2023/02/17 06:55:56;;;;;;;;;;;;;;;6.99;51.87;102165.28;4992657;28;19914;-69
2023/02/17 06:58:46;;;;;;;;;;;;;;;6.87;52.33;102168.13;5005358;28;20390;-69
2023/02/17 07:01:37;;;;;;;;;;;;;;;6.83;52.08;102169.69;5009190;28;20293;-68
2023/02/17 07:04:29;;;;;;;;;;;;;;;6.76;52.24;102169.88;4993039;28;19913;-69
2023/02/17 07:07:21;;;;;;;;;;;;;;;6.79;51.47;102174.81;5014883;28;19913;-68
2023/02/17 07:10:13;;;;;;;;;;;;;;;6.69;51.85;102174.69;5007899;28;19914;-69
2023/02/17 07:13:05;;;;;;;;;;;;;;;6.74;52.08;102182.88;4979924;28;19913;-69
2023/02/17 07:15:56;;;;;;;;;;;;;;;6.76;52.14;102178.00;5009734;28;19917;-69
2023/02/17 07:18:48;;;;;;;;;;;;;;;6.93;51.99;102175.22;5011944;28;19913;-71
2023/02/17 07:21:40;;;;;;;;;;;;;;;7.06;52.57;102180.19;5011424;28;20381;-71
2023/02/17 07:24:32;;;;;;;;;;;;;;;7.00;52.79;102177.72;5011186;28;19913;-72
2023/02/17 07:27:24;;;;;;;;;;;;;;;7.04;52.97;102181.53;5014110;28;20302;-72
2023/02/17 07:30:16;;;;;;;;;;;;;;;7.09;53.07;102178.88;4993052;28;19913;-72
2023/02/17 07:33:09;;;;;;;;;;;;;;;7.05;53.12;102183.19;4990497;28;19913;-72
2023/02/17 07:36:01;;;;;;;;;;;;;;;7.08;52.96;102188.06;5018970;28;19917;-71
2023/02/17 07:38:53;;;;;;;;;;;;;;;7.07;53.36;102191.84;5006138;28;19917;-71
2023/02/17 07:41:42;;;;;;;;;;;;;;;7.17;53.39;102195.47;5011718;28;19921;-71
2023/02/17 07:44:32;;;;;;;;;;;;;;;7.22;53.34;102195.50;5003992;28;19914;-71
2023/02/17 07:47:21;;;;;;;;;;;;;;;7.16;53.83;102185.72;5013970;28;19914;-71
2023/02/17 07:50:13;;;;;;;;;;;;;;;7.16;54.38;102184.91;4997784;28;19913;-71
2023/02/17 07:53:03;;;;;;;;;;;;;;;7.24;54.42;102187.97;5000154;28;19913;-71
2023/02/17 07:55:55;;;;;;;;;;;;;;;7.39;54.73;102192.69;5011647;28;19914;-71
2023/02/17 07:58:47;;;;;;;;;;;;;;;7.41;55.32;102192.44;5013426;28;19914;-72
2023/02/17 08:01:39;;;;;;;;;;;;;;;7.48;55.48;102193.84;5000619;28;19917;-72
2023/02/17 08:04:31;;;;;;;;;;;;;;;7.50;56.21;102190.91;5000611;28;19917;-72
2023/02/17 08:07:23;;;;;;;;;;;;;;;7.58;56.25;102193.94;5014266;28;19913;-71
2023/02/17 08:13:24;;;;;;;;;;;;;;;7.79;56.23;102189.47;5012105;28;19917;-71
2023/02/17 08:16:16;;;;;;;;;;;;;;;8.13;57.38;102196.19;5013510;28;19913;-71
2023/02/17 08:19:08;;;;;;;;;;;;;;;8.14;57.66;102203.25;5014415;28;19917;-71
2023/02/17 08:22:00;;;;;;;;;;;;;;;8.09;57.87;102200.50;5002955;28;19917;-71
2023/02/17 08:24:49;;;;;;;;;;;;;;;8.15;57.72;102193.22;5012860;28;19913;-71
2023/02/17 08:27:39;;;;;;;;;;;;;;;8.16;57.94;102198.41;5013263;28;19913;-72
2023/02/17 08:30:30;;;;;;;;;;;;;;;8.20;57.99;102201.41;4989321;28;19913;-71
2023/02/17 08:33:22;;;;;;;;;;;;;;;8.24;58.30;102202.50;4997893;28;19914;-72
2023/02/17 08:36:12;;;;;;;;;;;;;;;8.29;58.58;102199.81;4994685;28;19917;-72
2023/02/17 08:39:01;;;;;;;;;;;;;;;8.38;58.35;102203.66;5012636;28;19921;-71
2023/02/17 08:41:48;;;;;;;;;;;;;;;8.55;58.35;102204.31;5012567;28;19925;-71
2023/02/17 08:44:40;;;;;;;;;;;;;;;8.59;58.38;102207.28;5009092;28;19914;-72
2023/02/17 08:47:32;;;;;;;;;;;;;;;8.66;58.62;102209.75;5010630;28;19921;-71
2023/02/17 08:50:24;;;;;;;;;;;;;;;8.73;58.27;102210.34;5008660;28;20384;-73
2023/02/17 08:53:16;;;;;;;;;;;;;;;8.76;58.64;102210.63;5010895;28;19917;-72
2023/02/17 08:56:08;;;;;;;;;;;;;;;8.79;59.18;102209.25;5008995;28;19921;-73
2023/02/17 08:59:00;;;;;;;;;;;;;;;8.84;59.31;102212.81;4994298;28;19914;-73
2023/02/17 09:01:52;;;;;;;;;;;;;;;8.91;59.53;102209.84;5007787;28;20378;-72
2023/02/17 09:04:42;;;;;;;;;;;;;;;8.95;59.97;102210.94;5006482;28;19917;-72
2023/02/17 09:07:31;;;;;;;;;;;;;;;9.01;59.91;102209.88;5004983;28;20294;-72
2023/02/17 09:10:23;;;;;;;;;;;;;;;9.07;60.17;102206.09;5014785;28;19913;-72
2023/02/17 09:13:20;;;;;;;;;;;;;;;9.10;60.56;102205.53;4996846;28;19913;-72
2023/02/17 09:16:09;;;;;;;;;;;;;;;9.08;61.09;102196.88;5015479;28;19913;-73
2023/02/17 09:19:01;;;;;;;;;;;;;;;9.14;61.26;102203.13;4995935;28;19913;-72
2023/02/17 09:21:53;;;;;;;;;;;;;;;9.21;61.22;102207.19;5011072;28;20314;-73
2023/02/17 09:24:45;;;;;;;;;;;;;;;9.24;60.97;102206.69;5012957;28;20297;-73
2023/02/17 09:27:37;;;;;;;;;;;;;;;9.31;61.09;102201.78;5000527;28;19917;-73
2023/02/17 09:30:29;;;;;;;;;;;;;;;9.31;61.63;102199.06;4998141;28;19913;-73
2023/02/17 09:33:19;;;;;;;;;;;;;;;9.37;61.18;102203.41;4992947;28;19914;-73
2023/02/17 09:36:09;;;;;;;;;;;;;;;9.52;60.90;102209.94;4994149;28;19914;-74
2023/02/17 09:39:01;;;;;;;;;;;;;;;9.61;60.80;102205.59;4992480;28;19913;-75
2023/02/17 09:41:53;;;;;;;;;;;;;;;9.73;60.68;102204.25;5010369;28;19929;-73
2023/02/17 09:44:46;;;;;;;;;;;;;;;9.85;60.63;102198.53;5002531;28;20402;-73
2023/02/17 09:47:38;;;;;;;;;;;;;;;9.91;60.75;102211.00;5000608;28;20329;-73
2023/02/17 09:50:39;;;;;;;;;;;;;;;9.97;60.76;102200.94;5009836;28;19913;-74
2023/02/17 09:53:35;;;;;;;;;;;;;;;10.05;60.82;102206.66;5008311;28;19913;-72
2023/02/17 09:56:29;;;;;;;;;;;;;;;10.12;60.83;102209.06;5023351;28;19916;-73
2023/02/17 09:59:34;;;;;;;;;;;;;;;10.16;61.14;102204.72;5014158;28;19913;-72
2023/02/17 10:02:30;;;;;;;;;;;;;;;10.23;61.17;102211.50;5013753;28;20386;-72
2023/02/17 10:05:23;;;;;;;;;;;;;;;10.31;61.09;102203.91;5015858;28;19914;-72
2023/02/17 10:08:20;;;;;;;;;;;;;;;10.36;61.23;102210.13;5016339;28;19922;-72
2023/02/17 10:11:15;;;;;;;;;;;;;;;10.42;61.11;102210.91;5001692;28;20290;-73
2023/02/17 10:14:18;;;;;;;;;;;;;;;10.46;61.83;102196.50;5012378;28;19913;-73
2023/02/17 10:17:12;;;;;;;;;;;;;;;10.50;61.68;102202.19;5019746;28;19917;-73
2023/02/17 10:20:05;;;;;;;;;;;;;;;10.56;61.67;102206.53;4997927;28;19913;-74
2023/02/17 10:23:06;;;;;;;;;;;;;;;10.61;61.51;102204.59;5001566;28;20306;-72
2023/02/17 10:26:14;;;;;;;;;;;;;;;10.63;61.74;102205.13;5001994;28;19913;-73
2023/02/17 10:29:07;;;;;;;;;;;;;;;10.65;61.91;102200.22;4996759;28;19913;-73
2023/02/17 10:32:16;;;;;;;;;;;;;;;10.68;62.36;102199.66;4985344;28;19913;-74
2023/02/17 10:35:16;;;;;;;;;;;;;;;10.73;62.49;102196.91;4989093;28;19917;-73
2023/02/17 10:38:34;;;;;;;;;;;;;;;10.77;62.39;102202.59;4990419;28;19913;-73
2023/02/17 10:41:28;;;;;;;;;;;;;;;10.82;62.31;102196.34;5005906;28;19921;-74
2023/02/17 10:44:21;;;;;;;;;;;;;;;10.87;62.46;102196.31;5024305;28;19913;-73
2023/02/17 10:47:13;;;;;;;;;;;;;;;10.91;61.98;102197.38;5010770;28;19913;-73
2023/02/17 10:50:07;;;;;;;;;;;;;;;10.96;62.25;102184.53;4999404;28;19918;-73
2023/02/17 10:52:57;;;;;;;;;;;;;;;11.00;62.47;102179.34;5012553;28;19913;-74
2023/02/17 10:55:50;;;;;;;;;;;;;;;11.03;62.38;102176.88;4994819;28;19917;-74
2023/02/17 10:59:01;;;;;;;;;;;;;;;11.07;62.30;102166.25;5011941;28;19913;-74
2023/02/17 11:01:58;;;;;;;;;;;;;;;11.12;62.49;102171.66;5004331;28;20317;-74
2023/02/17 11:04:48;;;;;;;;;;;;;;;11.16;62.36;102167.25;5003006;28;19913;-73
2023/02/17 11:07:39;;;;;;;;;;;;;;;11.20;62.38;102156.59;4995948;28;19913;-74
2023/02/17 11:10:35;;;;;;;;;;;;;;;11.19;62.32;102150.34;4997503;28;19917;-73
2023/02/17 11:13:45;;;;;;;;;;;;;;;11.22;62.11;102148.97;4996646;28;19925;-74
2023/02/17 11:16:37;;;;;;;;;;;;;;;11.28;62.08;102147.81;5000668;28;19913;-72
2023/02/17 11:19:27;;;;;;;;;;;;;;;11.30;61.99;102143.72;5015150;28;20382;-72
2023/02/17 11:22:35;;;;;;;;;;;;;;;11.33;62.00;102132.25;5001118;28;19918;-74
2023/02/17 11:25:29;;;;;;;;;;;;;;;11.38;61.90;102126.75;5004204;28;19921;-73
2023/02/17 11:28:26;;;;;;;;;;;;;;;11.46;61.59;102119.91;5009501;28;19913;-73
2023/02/17 11:31:26;;;;;;;;;;;;;;;11.47;61.77;102119.63;5027225;28;19916;-73
2023/02/17 11:34:22;;;;;;;;;;;;;;;11.59;61.92;102124.66;5007103;28;20374;-73
2023/02/17 11:37:18;;;;;;;;;;;;;;;11.58;61.76;102114.88;5008281;28;19914;-73
2023/02/17 11:40:18;;;;;;;;;;;;;;;11.62;61.93;102115.13;5011322;28;19913;-73
2023/02/17 11:43:17;;;;;;;;;;;;;;;11.68;61.92;102098.44;4983310;28;20315;-74
2023/02/17 11:46:22;;;;;;;;;;;;;;;11.78;61.88;102105.72;4997330;28;19921;-72
2023/02/17 11:49:34;;;;;;;;;;;;;;;11.84;61.63;102096.38;4992130;28;19913;-72
2023/02/17 11:52:39;;;;;;;;;;;;;;;11.87;61.72;102093.06;5015103;28;19925;-73
2023/02/17 11:55:41;;;;;;;;;;;;;;;11.89;61.39;102083.50;5034230;28;19912;-71
2023/02/17 11:58:42;;;;;;;;;;;;;;;11.90;61.74;102084.31;5014737;28;19913;-73
2023/02/17 12:01:38;;;;;;;;;;;;;;;11.93;61.52;102081.03;4985069;28;19917;-73
2023/02/17 12:04:31;;;;;;;;;;;;;;;12.02;61.34;102081.19;4983142;28;19913;-72
2023/02/17 12:07:33;;;;;;;;;;;;;;;12.06;60.89;102076.75;5006618;28;19914;-73
2023/02/17 12:11:01;;;;;;;;;;;;;;;12.16;60.95;102076.63;5006851;28;19913;-73
2023/02/17 12:14:09;;;;;;;;;;;;;;;12.17;61.00;102064.63;4904513;29;19915;-73
2023/02/17 12:17:22;;;;;;;;;;;;;;;12.17;60.94;102062.72;4919853;29;19926;-72
2023/02/17 12:20:31;;;;;;;;;;;;;;;12.26;60.93;102060.13;5004550;28;19914;-73
2023/02/17 12:23:32;;;;;;;;;;;;;;;12.41;60.44;102062.66;4996309;28;19917;-73
2023/02/17 12:26:30;;;;;;;;;;;;;;;12.40;60.19;102052.84;5001103;28;19917;-73
2023/02/17 12:29:28;;;;;;;;;;;;;;;12.40;60.08;102050.13;4991587;28;19928;-73
2023/02/17 12:32:34;;;;;;;;;;;;;;;12.50;60.02;102055.44;4990928;28;19918;-74
2023/02/17 12:35:27;;;;;;;;;;;;;;;12.52;59.82;102053.22;4992491;28;19913;-73
2023/02/17 12:38:20;;;;;;;;;;;;;;;12.58;59.70;102043.88;5002601;28;19913;-74
2023/02/17 12:41:19;;;;;;;;;;;;;;;12.67;59.61;102038.53;5010226;28;19914;-73
2023/02/17 12:44:35;;;;;;;;;;;;;;;12.91;58.12;102033.78;4998447;28;19918;-73
2023/02/17 12:47:31;;;;;;;;;;;;;;;13.03;57.53;102030.56;4987030;28;20306;-73
2023/02/17 12:50:25;;;;;;;;;;;;;;;13.07;57.56;102031.59;4998899;28;19913;-72
2023/02/17 12:53:20;;;;;;;;;;;;;;;13.13;57.37;102030.44;5009680;28;19917;-74
2023/02/17 12:56:34;;;;;;;;;;;;;;;13.24;57.40;102015.50;5009307;28;20291;-74
2023/02/17 12:59:37;;;;;;;;;;;;;;;13.38;57.02;102021.78;5001522;28;19913;-73
2023/02/17 13:02:29;;;;;;;;;;;;;;;13.42;56.93;102016.50;4997794;28;20302;-72
2023/02/17 13:05:25;;;;;;;;;;;;;;;13.41;56.96;102010.22;5013272;28;19913;-73
2023/02/17 13:08:18;;;;;;;;;;;;;;;13.47;56.61;102009.03;5013168;28;19917;-73
2023/02/17 13:11:12;;;;;;;;;;;;;;;13.54;56.35;102005.91;5011977;28;19913;-73
2023/02/17 13:14:26;;;;;;;;;;;;;;;13.55;56.43;101993.84;5009641;28;19913;-74
2023/02/17 13:17:31;;;;;;;;;;;;;;;13.71;56.20;101992.44;5002155;28;19943;-73
2023/02/17 13:20:23;;;;;;;;;;;;;;;13.86;55.84;101994.84;5018160;28;20374;-73
2023/02/17 13:23:27;;;;;;;;;;;;;;;13.87;55.80;101981.97;5018823;28;19917;-73
2023/02/17 13:26:20;;;;;;;;;;;;;;;18.63;43.39;101985.25;5031760;28;19913;-75
2023/02/17 13:29:34;;;;;;;;;;;;;;;17.34;45.71;101975.06;4991314;28;19914;-75
2023/02/17 13:32:28;;;;;;;;;;;;;;;20.59;39.26;101973.06;4981167;28;20302;-73
2023/02/17 13:35:29;;;;;;;;;;;;;;;21.50;35.17;101969.16;4986692;28;19913;-74
2023/02/17 13:38:32;;;;;;;;;;;;;;;22.35;34.32;101970.31;4992760;28;19913;-73
2023/02/17 13:41:24;;;;;;;;;;;;;;;19.79;37.93;101968.31;5011714;28;19914;-74
2023/02/17 13:44:34;;;;;;;;;;;;;;;18.46;41.04;101966.09;5012353;28;19913;-73
2023/02/17 13:47:39;;;;;;;;;;;;;;;17.77;42.60;101958.38;5001175;28;19917;-73
2023/02/17 13:50:36;;;;;;;;;;;;;;;17.74;43.03;101953.53;4978689;28;19918;-73
2023/02/17 13:53:34;;;;;;;;;;;;;;;18.34;41.86;101968.78;4992416;28;19918;-73
2023/02/17 13:56:30;;;;;;;;;;;;;;;19.15;39.33;101966.19;4995371;28;19914;-71
2023/02/17 13:59:25;;;;;;;;;;;;;;;19.50;38.22;101958.34;5013800;28;19914;-70
2023/02/17 14:02:20;;;;;;;;;;;;;;;18.30;40.18;101971.41;5019995;28;19917;-70
2023/02/17 14:05:18;;;;;;;;;;;;;;;21.12;35.62;101963.44;5010350;28;19913;-70
2023/02/17 14:08:13;;;;;;;;;;;;;;;23.52;31.84;101970.50;5011875;28;19913;-70
2023/02/17 14:11:07;;;;;;;;;;;;;;;19.32;38.37;101958.88;4998811;28;19913;-70
2023/02/17 14:14:00;;;;;;;;;;;;;;;17.72;41.40;101957.75;4994710;28;19913;-70
2023/02/17 14:16:58;;;;;;;;;;;;;;;19.29;38.73;101965.09;4980452;28;19914;-70
2023/02/17 14:19:50;;;;;;;;;;;;;;;18.66;39.93;101965.28;5011730;28;19913;-70
2023/02/17 14:22:42;;;;;;;;;;;;;;;16.55;44.73;101950.88;5001799;28;19929;-70
2023/02/17 14:25:34;;;;;;;;;;;;;;;16.36;45.21;101944.88;5012508;28;19922;-70
2023/02/17 14:28:24;;;;;;;;;;;;;;;16.22;45.74;101944.25;4995908;28;19917;-70
2023/02/17 14:31:17;;;;;;;;;;;;;;;16.58;45.37;101952.97;4997752;28;19913;-71
2023/02/17 14:34:07;;;;;;;;;;;;;;;17.63;43.28;101952.28;5009252;28;19914;-71
2023/02/17 14:37:07;;;;;;;;;;;;;;;15.31;47.73;101941.47;5002095;28;19913;-71
2023/02/17 14:40:00;;;;;;;;;;;;;;;14.98;49.16;101943.75;5015675;28;19914;-71
2023/02/17 14:42:52;;;;;;;;;;;;;;;15.49;48.06;101947.84;5018017;28;19918;-71
2023/02/17 14:45:44;;;;;;;;;;;;;;;15.13;49.42;101945.28;4995436;28;19914;-71
2023/02/17 14:48:36;;;;;;;;;;;;;;;15.01;49.47;101940.38;5008106;28;19914;-71
2023/02/17 14:51:32;;;;;;;;;;;;;;;14.86;49.67;101946.25;4992476;28;19913;-71
2023/02/17 14:54:24;;;;;;;;;;;;;;;16.44;46.30;101946.03;5003137;28;19913;-70
2023/02/17 14:57:15;;;;;;;;;;;;;;;17.35;43.79;101946.44;4995175;28;20382;-70
2023/02/17 15:00:08;;;;;;;;;;;;;;;18.74;41.06;101949.81;5014429;28;20317;-72
2023/02/17 15:03:00;;;;;;;;;;;;;;;17.88;42.17;101943.06;5001082;28;19917;-72